Observations

82.9 °F / 28.3 °C
E at 20 MPH gusting to 26 MPH
76%
74.7°F / 23.7 °C
29.86" (1011 mb)
10 mile(s)
clear
2022.12.04 2240 UTC

Observations

Surface


Raw METARs

2022/12/04 22:40
PKWA 042240Z AUTO 08017G23KT 10SM CLR 28/24 A2986 RMK AO2 T02830237

Translated METAR

Kwajalein, Bucholz AAF, Kwajalein KMR ATOL Airport, Marshall Islands (PKWA) 08-43N 167-44E 2M
Dec 04, 2022 - 05:40 PM EST / 2022.12.04 2240 UTC
Wind: from the E (080 degrees) at 20 MPH (17 KT) gusting to 26 MPH (23 KT):0
Visibility: 10 mile(s):0
Sky conditions: clear
Temperature: 82.9 F (28.3 C)
Dew Point: 74.7 F (23.7 C)
Relative Humidity: 76%
Pressure (altimeter): 29.86 in. Hg (1011 hPa)
ob: PKWA 042240Z AUTO 08017G23KT 10SM CLR 28/24 A2986 RMK AO2 T02830237
cycle: 22



Upper Air


Latest Skew-T

Skew T Diagram

Latest Data File